»·PEaware :: N4527T KSBP-KBFL

N4527T :: KSBP-KBFL

FLIGHT INFORMATION

Flight Status: Arrived
Operator: Privately registered:
United States
More flights under this callsign
Pilot: Mike M. (17070)
Aircraft: BEECH AIRCRAFT BONANZA
(BE36)
More flights by this aircraft type
Origin: KSBP San Luis Co Regl
United States
Destination: KBFL Meadows
United States
More flights between these airports :: More routes between these airports
Route: DIRECT
File this flight plan on PilotEdge
Remarks:
Altitude:
(Current/Filed)
7,500ft
Speed:
(Current/Filed)
160kts
Departed: 03-Sep-19 02:46 PM
Arrived: 03-Sep-19 03:22 PM
Distance/Time
Traveled:
79nm/0:35
Distance/Time
To Go:
Arrived

Flight Plot

Page will automatically refresh every two minutes.


Map Options




Map Legend


Flown Route
Filed Route
Departure Airport
Arrival Airport
Navaid (VOR, NDB)
Fix

Horizontal Profiles

Position Reports

Time Latitude Longitude Heading Altitude Ground
Speed
03-Sep-19 14:31 35.237697 -120.645844 270 215ft 0kts
03-Sep-19 14:32 35.237697 -120.645844 270 215ft 0kts
03-Sep-19 14:33 35.237697 -120.645844 270 215ft 0kts
03-Sep-19 14:34 35.237697 -120.645844 270 215ft 0kts
03-Sep-19 14:35 35.237697 -120.645844 270 215ft 0kts
03-Sep-19 14:36 35.237697 -120.645847 271 215ft 0kts
03-Sep-19 14:38 35.237699 -120.645946 271 216ft 0kts
03-Sep-19 14:39 35.237440 -120.645978 91 216ft 9kts
03-Sep-19 14:40 35.237610 -120.643000 30 216ft 0kts
03-Sep-19 14:41 35.237719 -120.642919 32 216ft 5kts
03-Sep-19 14:42 35.238767 -120.641818 124 215ft 22kts
03-Sep-19 14:43 35.235511 -120.636004 133 216ft 17kts
03-Sep-19 14:44 35.233504 -120.632409 137 216ft 12kts
03-Sep-19 14:45 35.233132 -120.632402 218 216ft 2kts
03-Sep-19 14:46 35.239983 -120.645117 305 534ft 89kts
03-Sep-19 14:47 35.258657 -120.662476 31 1785ft 103kts
03-Sep-19 14:48 35.250944 -120.629110 126 2885ft 124kts
03-Sep-19 14:49 35.244157 -120.590206 87 4056ft 120kts
03-Sep-19 14:50 35.248640 -120.551827 76 5235ft 111kts
03-Sep-19 14:51 35.253765 -120.515601 78 6313ft 105kts
03-Sep-19 14:52 35.258385 -120.480344 79 7235ft 107kts
03-Sep-19 14:53 35.263939 -120.437778 79 7519ft 155kts
03-Sep-19 14:54 35.271194 -120.380895 79 7514ft 177kts
03-Sep-19 14:55 35.278948 -120.320296 80 7514ft 182kts
03-Sep-19 14:56 35.286804 -120.258977 80 7517ft 183kts
03-Sep-19 14:57 35.294540 -120.198034 80 7517ft 177kts
03-Sep-19 14:57 35.300801 -120.148606 80 7520ft 175kts
03-Sep-19 14:59 35.309307 -120.081152 80 7525ft 169kts
03-Sep-19 15:00 35.316487 -120.024046 80 7530ft 170kts
03-Sep-19 15:00 35.322426 -119.976072 80 7530ft 171kts
03-Sep-19 15:02 35.330827 -119.908841 80 7520ft 171kts
03-Sep-19 15:02 35.336785 -119.860840 80 7513ft 170kts
03-Sep-19 15:03 35.343974 -119.803485 80 7504ft 170kts
03-Sep-19 15:04 35.351086 -119.746180 81 7473ft 170kts
03-Sep-19 15:05 35.358060 -119.689003 82 7473ft 169kts
03-Sep-19 15:06 35.365005 -119.632203 81 7477ft 168kts
03-Sep-19 15:07 35.372024 -119.575299 81 7481ft 168kts
03-Sep-19 15:08 35.379252 -119.515727 82 7060ft 184kts
03-Sep-19 15:09 35.386592 -119.455008 81 6472ft 164kts
03-Sep-19 15:10 35.392953 -119.402168 81 5407ft 157kts
03-Sep-19 15:11 35.399347 -119.348889 82 4381ft 158kts
03-Sep-19 15:12 35.405608 -119.296408 81 3520ft 142kts
03-Sep-19 15:13 35.410778 -119.252814 81 3485ft 135kts
03-Sep-19 15:14 35.416611 -119.203994 81 2697ft 151kts
03-Sep-19 15:15 35.423001 -119.151080 80 1784ft 161kts
03-Sep-19 15:16 35.410469 -119.107949 135 1496ft 134kts
03-Sep-19 15:17 35.385570 -119.074757 124 1554ft 126kts
03-Sep-19 15:18 35.390258 -119.041563 43 1310ft 93kts
03-Sep-19 15:19 35.410904 -119.030758 331 1077ft 85kts
03-Sep-19 15:20 35.427429 -119.048577 312 590ft 75kts
03-Sep-19 15:21 35.436309 -119.057696 75 492ft 0kts
03-Sep-19 15:22 35.435322 -119.055702 137 492ft 21kts
03-Sep-19 15:23 35.431097 -119.050685 142 492ft 12kts
03-Sep-19 15:24 35.429510 -119.046829 89 493ft 10kts
03-Sep-19 15:25 35.429470 -119.046528 130 494ft 0kts

Navigation Log

Ident Type
Flight plan parsing failed, navigation log unavailable